sensor_id;sensor_type;location;lat;lon;timestamp;pressure;altitude;pressure_sealevel;temperature
10598;BMP180;5346;48.766;8.674;2024-03-08T00:00:56;93763.00;;;0.30
10598;BMP180;5346;48.766;8.674;2024-03-08T00:03:30;93761.00;;;0.20
10598;BMP180;5346;48.766;8.674;2024-03-08T00:06:06;93761.00;;;0.30
10598;BMP180;5346;48.766;8.674;2024-03-08T00:08:40;93753.00;;;0.20
10598;BMP180;5346;48.766;8.674;2024-03-08T00:11:14;93760.00;;;0.10
10598;BMP180;5346;48.766;8.674;2024-03-08T00:13:48;93750.00;;;0.10
10598;BMP180;5346;48.766;8.674;2024-03-08T00:16:22;93755.00;;;0.10
10598;BMP180;5346;48.766;8.674;2024-03-08T00:18:52;93744.00;;;0.00
10598;BMP180;5346;48.766;8.674;2024-03-08T00:21:26;93752.00;;;0.00
10598;BMP180;5346;48.766;8.674;2024-03-08T00:24:03;93760.00;;;-0.10
10598;BMP180;5346;48.766;8.674;2024-03-08T00:26:39;93756.00;;;-0.10
10598;BMP180;5346;48.766;8.674;2024-03-08T00:29:13;93752.00;;;-0.10
10598;BMP180;5346;48.766;8.674;2024-03-08T00:31:53;93754.00;;;-0.10
10598;BMP180;5346;48.766;8.674;2024-03-08T00:34:21;93759.00;;;-0.10
10598;BMP180;5346;48.766;8.674;2024-03-08T00:36:56;93749.00;;;-0.20
10598;BMP180;5346;48.766;8.674;2024-03-08T00:39:24;93737.00;;;-0.20
10598;BMP180;5346;48.766;8.674;2024-03-08T00:42:06;93732.00;;;-0.30
10598;BMP180;5346;48.766;8.674;2024-03-08T00:44:41;93741.00;;;-0.30
10598;BMP180;5346;48.766;8.674;2024-03-08T00:47:11;93730.00;;;-0.40
10598;BMP180;5346;48.766;8.674;2024-03-08T00:49:46;93733.00;;;-0.30
10598;BMP180;5346;48.766;8.674;2024-03-08T00:52:20;93732.00;;;-0.40
10598;BMP180;5346;48.766;8.674;2024-03-08T00:54:54;93727.00;;;-0.40
10598;BMP180;5346;48.766;8.674;2024-03-08T00:57:29;93723.00;;;-0.40
10598;BMP180;5346;48.766;8.674;2024-03-08T01:00:05;93721.00;;;-0.30
10598;BMP180;5346;48.766;8.674;2024-03-08T01:02:36;93719.00;;;-0.40
10598;BMP180;5346;48.766;8.674;2024-03-08T01:05:10;93713.00;;;-0.30
10598;BMP180;5346;48.766;8.674;2024-03-08T01:07:40;93714.00;;;-0.50
10598;BMP180;5346;48.766;8.674;2024-03-08T01:10:15;93704.00;;;-0.50
10598;BMP180;5346;48.766;8.674;2024-03-08T01:12:43;93709.00;;;-0.50
10598;BMP180;5346;48.766;8.674;2024-03-08T01:15:18;93710.00;;;-0.40
10598;BMP180;5346;48.766;8.674;2024-03-08T01:17:47;93703.00;;;-0.40
10598;BMP180;5346;48.766;8.674;2024-03-08T01:20:22;93698.00;;;-0.40
10598;BMP180;5346;48.766;8.674;2024-03-08T01:22:57;93692.00;;;-0.50
10598;BMP180;5346;48.766;8.674;2024-03-08T01:25:25;93699.00;;;-0.70
10598;BMP180;5346;48.766;8.674;2024-03-08T01:27:53;93689.00;;;-0.50
10598;BMP180;5346;48.766;8.674;2024-03-08T01:30:28;93689.00;;;-0.70
10598;BMP180;5346;48.766;8.674;2024-03-08T01:32:56;93687.00;;;-0.60
10598;BMP180;5346;48.766;8.674;2024-03-08T01:35:33;93680.00;;;-0.70
10598;BMP180;5346;48.766;8.674;2024-03-08T01:38:11;93678.00;;;-0.70
10598;BMP180;5346;48.766;8.674;2024-03-08T01:40:45;93682.00;;;-0.60
10598;BMP180;5346;48.766;8.674;2024-03-08T01:43:26;93666.00;;;-0.70
10598;BMP180;5346;48.766;8.674;2024-03-08T01:46:02;93673.00;;;-0.80
10598;BMP180;5346;48.766;8.674;2024-03-08T01:48:37;93671.00;;;-0.70
10598;BMP180;5346;48.766;8.674;2024-03-08T01:51:05;93657.00;;;-0.80
10598;BMP180;5346;48.766;8.674;2024-03-08T01:53:43;93649.00;;;-0.80
10598;BMP180;5346;48.766;8.674;2024-03-08T01:56:14;93656.00;;;-0.80
10598;BMP180;5346;48.766;8.674;2024-03-08T01:58:48;93650.00;;;-0.90
10598;BMP180;5346;48.766;8.674;2024-03-08T02:01:16;93636.00;;;-0.90
10598;BMP180;5346;48.766;8.674;2024-03-08T02:03:53;93635.00;;;-1.00
10598;BMP180;5346;48.766;8.674;2024-03-08T02:06:22;93622.00;;;-1.00
10598;BMP180;5346;48.766;8.674;2024-03-08T02:08:50;93622.00;;;-1.00
10598;BMP180;5346;48.766;8.674;2024-03-08T02:11:24;93611.00;;;-1.20
10598;BMP180;5346;48.766;8.674;2024-03-08T02:13:52;93612.00;;;-1.20
10598;BMP180;5346;48.766;8.674;2024-03-08T02:16:26;93617.00;;;-1.20
10598;BMP180;5346;48.766;8.674;2024-03-08T02:18:53;93604.00;;;-1.30
10598;BMP180;5346;48.766;8.674;2024-03-08T02:21:30;93612.00;;;-1.20
10598;BMP180;5346;48.766;8.674;2024-03-08T02:24:05;93600.00;;;-1.30
10598;BMP180;5346;48.766;8.674;2024-03-08T02:26:40;93605.00;;;-1.30
10598;BMP180;5346;48.766;8.674;2024-03-08T02:29:11;93597.00;;;-1.20
10598;BMP180;5346;48.766;8.674;2024-03-08T02:31:45;93598.00;;;-1.20
10598;BMP180;5346;48.766;8.674;2024-03-08T02:34:19;93587.00;;;-1.20
10598;BMP180;5346;48.766;8.674;2024-03-08T02:36:54;93592.00;;;-1.30
10598;BMP180;5346;48.766;8.674;2024-03-08T02:39:33;93594.00;;;-1.40
10598;BMP180;5346;48.766;8.674;2024-03-08T02:42:08;93591.00;;;-1.30
10598;BMP180;5346;48.766;8.674;2024-03-08T02:44:45;93586.00;;;-1.40
10598;BMP180;5346;48.766;8.674;2024-03-08T02:47:21;93593.00;;;-1.40
10598;BMP180;5346;48.766;8.674;2024-03-08T02:49:56;93593.00;;;-1.50
10598;BMP180;5346;48.766;8.674;2024-03-08T02:52:24;93577.00;;;-1.50
10598;BMP180;5346;48.766;8.674;2024-03-08T02:54:58;93592.00;;;-1.40
10598;BMP180;5346;48.766;8.674;2024-03-08T02:57:26;93584.00;;;-1.40
10598;BMP180;5346;48.766;8.674;2024-03-08T03:00:01;93584.00;;;-1.40
10598;BMP180;5346;48.766;8.674;2024-03-08T03:02:36;93584.00;;;-1.40
10598;BMP180;5346;48.766;8.674;2024-03-08T03:05:11;93583.00;;;-1.50
10598;BMP180;5346;48.766;8.674;2024-03-08T03:07:45;93579.00;;;-1.40
10598;BMP180;5346;48.766;8.674;2024-03-08T03:10:20;93564.00;;;-1.40
10598;BMP180;5346;48.766;8.674;2024-03-08T03:12:55;93566.00;;;-1.50
10598;BMP180;5346;48.766;8.674;2024-03-08T03:15:23;93567.00;;;-1.70
10598;BMP180;5346;48.766;8.674;2024-03-08T03:17:57;93563.00;;;-1.50
10598;BMP180;5346;48.766;8.674;2024-03-08T03:20:26;93558.00;;;-1.50
10598;BMP180;5346;48.766;8.674;2024-03-08T03:23:09;93555.00;;;-1.50
10598;BMP180;5346;48.766;8.674;2024-03-08T03:25:37;93559.00;;;-1.50
10598;BMP180;5346;48.766;8.674;2024-03-08T03:28:12;93550.00;;;-1.60
10598;BMP180;5346;48.766;8.674;2024-03-08T03:30:46;93537.00;;;-1.60
10598;BMP180;5346;48.766;8.674;2024-03-08T03:33:23;93540.00;;;-1.60
10598;BMP180;5346;48.766;8.674;2024-03-08T03:36:11;93539.00;;;-1.60
10598;BMP180;5346;48.766;8.674;2024-03-08T03:38:48;93538.00;;;-1.60
10598;BMP180;5346;48.766;8.674;2024-03-08T03:41:25;93536.00;;;-1.70
10598;BMP180;5346;48.766;8.674;2024-03-08T03:43:53;93532.00;;;-1.70
10598;BMP180;5346;48.766;8.674;2024-03-08T03:46:28;93529.00;;;-1.60
10598;BMP180;5346;48.766;8.674;2024-03-08T03:48:59;93531.00;;;-1.80
10598;BMP180;5346;48.766;8.674;2024-03-08T03:51:33;93530.00;;;-1.70
10598;BMP180;5346;48.766;8.674;2024-03-08T03:54:02;93530.00;;;-1.70
10598;BMP180;5346;48.766;8.674;2024-03-08T03:56:43;93535.00;;;-1.80
10598;BMP180;5346;48.766;8.674;2024-03-08T03:59:10;93532.00;;;-1.80
10598;BMP180;5346;48.766;8.674;2024-03-08T04:01:47;93520.00;;;-1.90
10598;BMP180;5346;48.766;8.674;2024-03-08T04:04:22;93525.00;;;-2.00
10598;BMP180;5346;48.766;8.674;2024-03-08T04:06:58;93527.00;;;-1.90
10598;BMP180;5346;48.766;8.674;2024-03-08T04:09:34;93520.00;;;-1.90
10598;BMP180;5346;48.766;8.674;2024-03-08T04:12:11;93518.00;;;-1.80
10598;BMP180;5346;48.766;8.674;2024-03-08T04:14:46;93519.00;;;-1.90
10598;BMP180;5346;48.766;8.674;2024-03-08T04:17:14;93514.00;;;-1.80
10598;BMP180;5346;48.766;8.674;2024-03-08T04:19:48;93519.00;;;-2.00
10598;BMP180;5346;48.766;8.674;2024-03-08T04:22:22;93516.00;;;-1.90
10598;BMP180;5346;48.766;8.674;2024-03-08T04:24:50;93504.00;;;-1.90
10598;BMP180;5346;48.766;8.674;2024-03-08T04:27:18;93508.00;;;-2.00
10598;BMP180;5346;48.766;8.674;2024-03-08T04:29:52;93507.00;;;-2.10
10598;BMP180;5346;48.766;8.674;2024-03-08T04:32:23;93513.00;;;-2.00
10598;BMP180;5346;48.766;8.674;2024-03-08T04:35:05;93507.00;;;-2.10
10598;BMP180;5346;48.766;8.674;2024-03-08T04:37:32;93503.00;;;-2.00
10598;BMP180;5346;48.766;8.674;2024-03-08T04:40:07;93507.00;;;-2.00
10598;BMP180;5346;48.766;8.674;2024-03-08T04:42:37;93496.00;;;-2.00
10598;BMP180;5346;48.766;8.674;2024-03-08T04:45:13;93504.00;;;-2.00
10598;BMP180;5346;48.766;8.674;2024-03-08T04:47:41;93496.00;;;-2.10
10598;BMP180;5346;48.766;8.674;2024-03-08T04:50:09;93490.00;;;-2.10
10598;BMP180;5346;48.766;8.674;2024-03-08T04:52:45;93501.00;;;-2.10
10598;BMP180;5346;48.766;8.674;2024-03-08T04:55:20;93495.00;;;-2.00
10598;BMP180;5346;48.766;8.674;2024-03-08T04:57:56;93491.00;;;-2.10
10598;BMP180;5346;48.766;8.674;2024-03-08T05:00:31;93487.00;;;-2.20
10598;BMP180;5346;48.766;8.674;2024-03-08T05:03:01;93492.00;;;-2.10
10598;BMP180;5346;48.766;8.674;2024-03-08T05:05:35;93485.00;;;-2.10
10598;BMP180;5346;48.766;8.674;2024-03-08T05:08:11;93482.00;;;-2.30
10598;BMP180;5346;48.766;8.674;2024-03-08T05:10:46;93484.00;;;-2.30
10598;BMP180;5346;48.766;8.674;2024-03-08T05:13:14;93483.00;;;-2.30
10598;BMP180;5346;48.766;8.674;2024-03-08T05:15:51;93479.00;;;-2.30
10598;BMP180;5346;48.766;8.674;2024-03-08T05:18:20;93476.00;;;-2.20
10598;BMP180;5346;48.766;8.674;2024-03-08T05:20:56;93479.00;;;-2.20
10598;BMP180;5346;48.766;8.674;2024-03-08T05:23:32;93480.00;;;-2.40
10598;BMP180;5346;48.766;8.674;2024-03-08T05:25:59;93480.00;;;-2.40
10598;BMP180;5346;48.766;8.674;2024-03-08T05:28:36;93484.00;;;-2.30
10598;BMP180;5346;48.766;8.674;2024-03-08T05:31:14;93468.00;;;-2.30
10598;BMP180;5346;48.766;8.674;2024-03-08T05:33:45;93475.00;;;-2.20
10598;BMP180;5346;48.766;8.674;2024-03-08T05:36:19;93467.00;;;-2.20
10598;BMP180;5346;48.766;8.674;2024-03-08T05:38:54;93468.00;;;-2.20
10598;BMP180;5346;48.766;8.674;2024-03-08T05:41:28;93479.00;;;-2.20
10598;BMP180;5346;48.766;8.674;2024-03-08T05:43:56;93469.00;;;-2.10
10598;BMP180;5346;48.766;8.674;2024-03-08T05:46:30;93478.00;;;-2.10
10598;BMP180;5346;48.766;8.674;2024-03-08T05:49:07;93468.00;;;-2.20
10598;BMP180;5346;48.766;8.674;2024-03-08T05:51:44;93470.00;;;-2.30
10598;BMP180;5346;48.766;8.674;2024-03-08T05:54:12;93472.00;;;-2.10
10598;BMP180;5346;48.766;8.674;2024-03-08T05:56:50;93462.00;;;-1.90
10598;BMP180;5346;48.766;8.674;2024-03-08T05:59:26;93460.00;;;-1.90
10598;BMP180;5346;48.766;8.674;2024-03-08T06:02:01;93464.00;;;-1.80
10598;BMP180;5346;48.766;8.674;2024-03-08T06:04:36;93459.00;;;-1.70
10598;BMP180;5346;48.766;8.674;2024-03-08T06:07:14;93463.00;;;-1.50
10598;BMP180;5346;48.766;8.674;2024-03-08T06:09:48;93457.00;;;-1.50
10598;BMP180;5346;48.766;8.674;2024-03-08T06:12:23;93458.00;;;-1.40
10598;BMP180;5346;48.766;8.674;2024-03-08T06:14:59;93463.00;;;-1.50
10598;BMP180;5346;48.766;8.674;2024-03-08T06:17:36;93471.00;;;-1.40
10598;BMP180;5346;48.766;8.674;2024-03-08T06:20:09;93465.00;;;-1.30
10598;BMP180;5346;48.766;8.674;2024-03-08T06:22:49;93453.00;;;-1.20
10598;BMP180;5346;48.766;8.674;2024-03-08T06:25:24;93452.00;;;-1.40
10598;BMP180;5346;48.766;8.674;2024-03-08T06:27:58;93447.00;;;-1.30
10598;BMP180;5346;48.766;8.674;2024-03-08T06:30:37;93464.00;;;-1.30
10598;BMP180;5346;48.766;8.674;2024-03-08T06:33:20;93461.00;;;-1.20
10598;BMP180;5346;48.766;8.674;2024-03-08T06:36:05;93463.00;;;-1.00
10598;BMP180;5346;48.766;8.674;2024-03-08T06:38:41;93468.00;;;-0.80
10598;BMP180;5346;48.766;8.674;2024-03-08T06:41:16;93460.00;;;-0.90
10598;BMP180;5346;48.766;8.674;2024-03-08T06:43:51;93461.00;;;-0.90
10598;BMP180;5346;48.766;8.674;2024-03-08T06:46:27;93467.00;;;-1.00
10598;BMP180;5346;48.766;8.674;2024-03-08T06:49:01;93454.00;;;-1.00
10598;BMP180;5346;48.766;8.674;2024-03-08T06:51:37;93457.00;;;-0.80
10598;BMP180;5346;48.766;8.674;2024-03-08T06:54:05;93454.00;;;-0.90
10598;BMP180;5346;48.766;8.674;2024-03-08T06:56:43;93450.00;;;-0.80
10598;BMP180;5346;48.766;8.674;2024-03-08T06:59:11;93461.00;;;-1.00
10598;BMP180;5346;48.766;8.674;2024-03-08T07:01:45;93449.00;;;-1.00
10598;BMP180;5346;48.766;8.674;2024-03-08T07:04:14;93455.00;;;-1.00
10598;BMP180;5346;48.766;8.674;2024-03-08T07:06:49;93447.00;;;-0.70
10598;BMP180;5346;48.766;8.674;2024-03-08T07:09:26;93451.00;;;-0.70
10598;BMP180;5346;48.766;8.674;2024-03-08T07:12:00;93447.00;;;-0.80
10598;BMP180;5346;48.766;8.674;2024-03-08T07:14:29;93448.00;;;-0.70
10598;BMP180;5346;48.766;8.674;2024-03-08T07:17:05;93453.00;;;-0.60
10598;BMP180;5346;48.766;8.674;2024-03-08T07:19:38;93454.00;;;-0.60
10598;BMP180;5346;48.766;8.674;2024-03-08T07:22:12;93447.00;;;-0.50
10598;BMP180;5346;48.766;8.674;2024-03-08T07:24:47;93445.00;;;-0.60
10598;BMP180;5346;48.766;8.674;2024-03-08T07:27:37;93447.00;;;-0.60
10598;BMP180;5346;48.766;8.674;2024-03-08T07:30:12;93437.00;;;-0.50
10598;BMP180;5346;48.766;8.674;2024-03-08T07:32:47;93444.00;;;-0.50
10598;BMP180;5346;48.766;8.674;2024-03-08T07:35:31;93449.00;;;-0.40
10598;BMP180;5346;48.766;8.674;2024-03-08T07:38:10;93442.00;;;-0.40
10598;BMP180;5346;48.766;8.674;2024-03-08T07:40:45;93437.00;;;-0.50
10598;BMP180;5346;48.766;8.674;2024-03-08T07:43:20;93445.00;;;-0.30
10598;BMP180;5346;48.766;8.674;2024-03-08T07:45:49;93445.00;;;-0.60
10598;BMP180;5346;48.766;8.674;2024-03-08T07:48:25;93450.00;;;-0.50
10598;BMP180;5346;48.766;8.674;2024-03-08T07:50:53;93433.00;;;-0.30
10598;BMP180;5346;48.766;8.674;2024-03-08T07:53:28;93417.00;;;-0.20
10598;BMP180;5346;48.766;8.674;2024-03-08T07:55:56;93435.00;;;-0.20
10598;BMP180;5346;48.766;8.674;2024-03-08T07:58:23;93434.00;;;-0.50
10598;BMP180;5346;48.766;8.674;2024-03-08T08:01:01;93433.00;;;-0.30
10598;BMP180;5346;48.766;8.674;2024-03-08T08:03:30;93418.00;;;-0.50
10598;BMP180;5346;48.766;8.674;2024-03-08T08:06:04;93425.00;;;-0.20
10598;BMP180;5346;48.766;8.674;2024-03-08T08:08:32;93423.00;;;-0.20
10598;BMP180;5346;48.766;8.674;2024-03-08T08:11:06;93422.00;;;-0.20
10598;BMP180;5346;48.766;8.674;2024-03-08T08:13:36;93430.00;;;-0.20
10598;BMP180;5346;48.766;8.674;2024-03-08T08:16:11;93423.00;;;0.00
10598;BMP180;5346;48.766;8.674;2024-03-08T08:18:49;93423.00;;;-0.30
10598;BMP180;5346;48.766;8.674;2024-03-08T08:21:24;93422.00;;;-0.30
10598;BMP180;5346;48.766;8.674;2024-03-08T08:24:00;93412.00;;;-0.30
10598;BMP180;5346;48.766;8.674;2024-03-08T08:26:32;93417.00;;;-0.50
10598;BMP180;5346;48.766;8.674;2024-03-08T08:29:08;93407.00;;;-0.40
10598;BMP180;5346;48.766;8.674;2024-03-08T08:31:36;93401.00;;;-0.40
10598;BMP180;5346;48.766;8.674;2024-03-08T08:34:04;93417.00;;;-0.30
10598;BMP180;5346;48.766;8.674;2024-03-08T08:36:39;93415.00;;;-0.20
10598;BMP180;5346;48.766;8.674;2024-03-08T08:39:20;93413.00;;;-0.20
10598;BMP180;5346;48.766;8.674;2024-03-08T08:41:56;93415.00;;;0.10
10598;BMP180;5346;48.766;8.674;2024-03-08T08:44:31;93416.00;;;-0.10
10598;BMP180;5346;48.766;8.674;2024-03-08T08:47:05;93411.00;;;0.10
10598;BMP180;5346;48.766;8.674;2024-03-08T08:49:43;93414.00;;;0.40
10598;BMP180;5346;48.766;8.674;2024-03-08T08:52:19;93413.00;;;0.40
10598;BMP180;5346;48.766;8.674;2024-03-08T08:54:55;93412.00;;;0.40
10598;BMP180;5346;48.766;8.674;2024-03-08T08:57:30;93396.00;;;0.20
10598;BMP180;5346;48.766;8.674;2024-03-08T09:00:08;93392.00;;;0.40
10598;BMP180;5346;48.766;8.674;2024-03-08T09:02:43;93400.00;;;0.40
10598;BMP180;5346;48.766;8.674;2024-03-08T09:05:17;93388.00;;;0.00
10598;BMP180;5346;48.766;8.674;2024-03-08T09:07:52;93391.00;;;0.40
10598;BMP180;5346;48.766;8.674;2024-03-08T09:10:20;93395.00;;;0.10
10598;BMP180;5346;48.766;8.674;2024-03-08T09:12:57;93388.00;;;0.30
10598;BMP180;5346;48.766;8.674;2024-03-08T09:15:27;93390.00;;;0.30
10598;BMP180;5346;48.766;8.674;2024-03-08T09:18:02;93386.00;;;0.50
10598;BMP180;5346;48.766;8.674;2024-03-08T09:20:30;93387.00;;;0.20
10598;BMP180;5346;48.766;8.674;2024-03-08T09:23:05;93391.00;;;0.50
10598;BMP180;5346;48.766;8.674;2024-03-08T09:25:39;93384.00;;;0.80
10598;BMP180;5346;48.766;8.674;2024-03-08T09:28:07;93384.00;;;0.10
10598;BMP180;5346;48.766;8.674;2024-03-08T09:30:42;93381.00;;;0.70
10598;BMP180;5346;48.766;8.674;2024-03-08T09:33:32;93380.00;;;0.70
10598;BMP180;5346;48.766;8.674;2024-03-08T09:36:08;93378.00;;;0.70
10598;BMP180;5346;48.766;8.674;2024-03-08T09:38:49;93377.00;;;1.20
10598;BMP180;5346;48.766;8.674;2024-03-08T09:41:24;93378.00;;;1.00
10598;BMP180;5346;48.766;8.674;2024-03-08T09:43:52;93376.00;;;1.10
10598;BMP180;5346;48.766;8.674;2024-03-08T09:46:27;93375.00;;;0.90
10598;BMP180;5346;48.766;8.674;2024-03-08T09:49:02;93379.00;;;0.50
10598;BMP180;5346;48.766;8.674;2024-03-08T09:51:42;93378.00;;;0.70
10598;BMP180;5346;48.766;8.674;2024-03-08T09:54:09;93371.00;;;0.70
10598;BMP180;5346;48.766;8.674;2024-03-08T09:56:51;93370.00;;;0.50
10598;BMP180;5346;48.766;8.674;2024-03-08T09:59:20;93372.00;;;0.40
10598;BMP180;5346;48.766;8.674;2024-03-08T10:01:57;93368.00;;;0.60
10598;BMP180;5346;48.766;8.674;2024-03-08T10:04:26;93356.00;;;0.60
10598;BMP180;5346;48.766;8.674;2024-03-08T10:07:02;93359.00;;;0.80
10598;BMP180;5346;48.766;8.674;2024-03-08T10:09:30;93367.00;;;0.80
10598;BMP180;5346;48.766;8.674;2024-03-08T10:11:57;93368.00;;;0.90
10598;BMP180;5346;48.766;8.674;2024-03-08T10:14:32;93355.00;;;1.00
10598;BMP180;5346;48.766;8.674;2024-03-08T10:17:07;93341.00;;;0.80
10598;BMP180;5346;48.766;8.674;2024-03-08T10:19:50;93348.00;;;1.10
10598;BMP180;5346;48.766;8.674;2024-03-08T10:22:26;93344.00;;;1.10
10598;BMP180;5346;48.766;8.674;2024-03-08T10:24:54;93349.00;;;1.60
10598;BMP180;5346;48.766;8.674;2024-03-08T10:27:21;93339.00;;;0.90
10598;BMP180;5346;48.766;8.674;2024-03-08T10:29:56;93342.00;;;1.10
10598;BMP180;5346;48.766;8.674;2024-03-08T10:32:31;93344.00;;;1.60
10598;BMP180;5346;48.766;8.674;2024-03-08T10:35:12;93333.00;;;1.70
10598;BMP180;5346;48.766;8.674;2024-03-08T10:37:48;93334.00;;;1.50
10598;BMP180;5346;48.766;8.674;2024-03-08T10:40:26;93328.00;;;1.80
10598;BMP180;5346;48.766;8.674;2024-03-08T10:43:03;93325.00;;;1.10
10598;BMP180;5346;48.766;8.674;2024-03-08T10:45:35;93324.00;;;0.90
10598;BMP180;5346;48.766;8.674;2024-03-08T10:48:29;93324.00;;;0.80
10598;BMP180;5346;48.766;8.674;2024-03-08T10:51:06;93329.00;;;1.20
10598;BMP180;5346;48.766;8.674;2024-03-08T10:53:43;93317.00;;;1.20
10598;BMP180;5346;48.766;8.674;2024-03-08T10:56:18;93325.00;;;1.40
10598;BMP180;5346;48.766;8.674;2024-03-08T10:58:52;93340.00;;;1.00
10598;BMP180;5346;48.766;8.674;2024-03-08T11:01:27;93323.00;;;1.50
10598;BMP180;5346;48.766;8.674;2024-03-08T11:04:06;93323.00;;;2.10
10598;BMP180;5346;48.766;8.674;2024-03-08T11:09:35;93329.00;;;2.20
10598;BMP180;5346;48.766;8.674;2024-03-08T11:12:22;93331.00;;;2.00
10598;BMP180;5346;48.766;8.674;2024-03-08T11:15:12;93335.00;;;2.20
10598;BMP180;5346;48.766;8.674;2024-03-08T11:17:45;93330.00;;;2.30
10598;BMP180;5346;48.766;8.674;2024-03-08T11:20:20;93326.00;;;1.90
10598;BMP180;5346;48.766;8.674;2024-03-08T11:23:00;93318.00;;;2.00
10598;BMP180;5346;48.766;8.674;2024-03-08T11:25:40;93325.00;;;1.90
10598;BMP180;5346;48.766;8.674;2024-03-08T11:28:15;93312.00;;;1.30
10598;BMP180;5346;48.766;8.674;2024-03-08T11:33:32;93312.00;;;2.50
10598;BMP180;5346;48.766;8.674;2024-03-08T11:36:11;93298.00;;;2.20
10598;BMP180;5346;48.766;8.674;2024-03-08T11:38:49;93299.00;;;2.70
10598;BMP180;5346;48.766;8.674;2024-03-08T11:41:24;93294.00;;;2.40
10598;BMP180;5346;48.766;8.674;2024-03-08T11:44:07;93297.00;;;2.20
10598;BMP180;5346;48.766;8.674;2024-03-08T11:46:51;93296.00;;;2.20
10598;BMP180;5346;48.766;8.674;2024-03-08T11:49:19;93294.00;;;2.20
10598;BMP180;5346;48.766;8.674;2024-03-08T11:51:54;93289.00;;;2.90
10598;BMP180;5346;48.766;8.674;2024-03-08T11:54:29;93279.00;;;2.80
10598;BMP180;5346;48.766;8.674;2024-03-08T11:56:59;93283.00;;;1.90
10598;BMP180;5346;48.766;8.674;2024-03-08T11:59:36;93294.00;;;2.10
10598;BMP180;5346;48.766;8.674;2024-03-08T12:02:13;93284.00;;;2.50
10598;BMP180;5346;48.766;8.674;2024-03-08T12:04:57;93280.00;;;2.50
10598;BMP180;5346;48.766;8.674;2024-03-08T12:07:31;93281.00;;;3.00
10598;BMP180;5346;48.766;8.674;2024-03-08T12:10:22;93266.00;;;2.80
10598;BMP180;5346;48.766;8.674;2024-03-08T12:12:52;93267.00;;;2.90
10598;BMP180;5346;48.766;8.674;2024-03-08T12:15:29;93251.00;;;2.80
10598;BMP180;5346;48.766;8.674;2024-03-08T12:18:04;93254.00;;;3.10
10598;BMP180;5346;48.766;8.674;2024-03-08T12:20:34;93251.00;;;3.00
10598;BMP180;5346;48.766;8.674;2024-03-08T12:23:14;93248.00;;;3.70
10598;BMP180;5346;48.766;8.674;2024-03-08T12:25:44;93255.00;;;3.90
10598;BMP180;5346;48.766;8.674;2024-03-08T12:28:20;93249.00;;;3.50
10598;BMP180;5346;48.766;8.674;2024-03-08T12:30:55;93256.00;;;3.60
10598;BMP180;5346;48.766;8.674;2024-03-08T12:33:27;93251.00;;;4.30
10598;BMP180;5346;48.766;8.674;2024-03-08T12:36:15;93239.00;;;3.60
10598;BMP180;5346;48.766;8.674;2024-03-08T12:38:46;93238.00;;;3.80
10598;BMP180;5346;48.766;8.674;2024-03-08T12:41:22;93235.00;;;4.90
10598;BMP180;5346;48.766;8.674;2024-03-08T12:43:50;93185.00;;;4.50
10598;BMP180;5346;48.766;8.674;2024-03-08T12:46:18;93186.00;;;6.60
10598;BMP180;5346;48.766;8.674;2024-03-08T12:48:57;93177.00;;;9.00
10598;BMP180;5346;48.766;8.674;2024-03-08T12:51:31;93173.00;;;8.60
10598;BMP180;5346;48.766;8.674;2024-03-08T12:54:07;93172.00;;;8.70
10598;BMP180;5346;48.766;8.674;2024-03-08T12:56:41;93178.00;;;8.80
10598;BMP180;5346;48.766;8.674;2024-03-08T12:59:15;93161.00;;;9.70
10598;BMP180;5346;48.766;8.674;2024-03-08T13:01:50;93153.00;;;9.90
10598;BMP180;5346;48.766;8.674;2024-03-08T13:04:26;93166.00;;;8.90
10598;BMP180;5346;48.766;8.674;2024-03-08T13:07:06;93153.00;;;10.10
10598;BMP180;5346;48.766;8.674;2024-03-08T13:09:34;93155.00;;;9.40
10598;BMP180;5346;48.766;8.674;2024-03-08T13:12:11;93157.00;;;9.80
10598;BMP180;5346;48.766;8.674;2024-03-08T13:14:41;93166.00;;;9.80
10598;BMP180;5346;48.766;8.674;2024-03-08T13:17:15;93136.00;;;10.60
10598;BMP180;5346;48.766;8.674;2024-03-08T13:19:51;93140.00;;;9.20
10598;BMP180;5346;48.766;8.674;2024-03-08T13:22:35;93133.00;;;8.60
10598;BMP180;5346;48.766;8.674;2024-03-08T13:25:15;93133.00;;;8.50
10598;BMP180;5346;48.766;8.674;2024-03-08T13:27:53;93137.00;;;10.60
10598;BMP180;5346;48.766;8.674;2024-03-08T13:30:28;93130.00;;;11.70
10598;BMP180;5346;48.766;8.674;2024-03-08T13:33:03;93123.00;;;11.60
10598;BMP180;5346;48.766;8.674;2024-03-08T13:35:39;93123.00;;;9.70
10598;BMP180;5346;48.766;8.674;2024-03-08T13:38:18;93127.00;;;10.00
10598;BMP180;5346;48.766;8.674;2024-03-08T13:40:54;93121.00;;;9.40
10598;BMP180;5346;48.766;8.674;2024-03-08T13:43:28;93120.00;;;10.70
10598;BMP180;5346;48.766;8.674;2024-03-08T13:45:58;93112.00;;;10.90
10598;BMP180;5346;48.766;8.674;2024-03-08T13:48:35;93115.00;;;10.00
10598;BMP180;5346;48.766;8.674;2024-03-08T13:51:08;93104.00;;;12.70
10598;BMP180;5346;48.766;8.674;2024-03-08T13:53:46;93110.00;;;11.40
10598;BMP180;5346;48.766;8.674;2024-03-08T13:56:14;93107.00;;;11.90
10598;BMP180;5346;48.766;8.674;2024-03-08T13:58:42;93114.00;;;10.50
10598;BMP180;5346;48.766;8.674;2024-03-08T14:01:19;93105.00;;;11.20
10598;BMP180;5346;48.766;8.674;2024-03-08T14:03:49;93110.00;;;12.00
10598;BMP180;5346;48.766;8.674;2024-03-08T14:06:23;93107.00;;;10.90
10598;BMP180;5346;48.766;8.674;2024-03-08T14:08:52;93107.00;;;9.60
10598;BMP180;5346;48.766;8.674;2024-03-08T14:11:31;93100.00;;;9.50
10598;BMP180;5346;48.766;8.674;2024-03-08T14:14:05;93108.00;;;9.70
10598;BMP180;5346;48.766;8.674;2024-03-08T14:16:44;93106.00;;;10.90
10598;BMP180;5346;48.766;8.674;2024-03-08T14:19:14;93097.00;;;12.00
10598;BMP180;5346;48.766;8.674;2024-03-08T14:21:49;93096.00;;;10.80
10598;BMP180;5346;48.766;8.674;2024-03-08T14:24:19;93102.00;;;11.10
10598;BMP180;5346;48.766;8.674;2024-03-08T14:26:53;93099.00;;;10.40
10598;BMP180;5346;48.766;8.674;2024-03-08T14:29:29;93096.00;;;10.00
10598;BMP180;5346;48.766;8.674;2024-03-08T14:32:07;93096.00;;;10.70
10598;BMP180;5346;48.766;8.674;2024-03-08T14:34:37;93088.00;;;9.10
10598;BMP180;5346;48.766;8.674;2024-03-08T14:37:12;93078.00;;;10.60
10598;BMP180;5346;48.766;8.674;2024-03-08T14:39:43;93075.00;;;11.50
10598;BMP180;5346;48.766;8.674;2024-03-08T14:42:17;93071.00;;;10.40
10598;BMP180;5346;48.766;8.674;2024-03-08T14:44:51;93069.00;;;9.20
10598;BMP180;5346;48.766;8.674;2024-03-08T14:47:27;93077.00;;;8.90
10598;BMP180;5346;48.766;8.674;2024-03-08T14:49:56;93064.00;;;10.10
10598;BMP180;5346;48.766;8.674;2024-03-08T14:52:30;93072.00;;;10.50
10598;BMP180;5346;48.766;8.674;2024-03-08T14:55:04;93062.00;;;12.10
10598;BMP180;5346;48.766;8.674;2024-03-08T14:57:37;93049.00;;;10.60
10598;BMP180;5346;48.766;8.674;2024-03-08T15:00:14;93070.00;;;10.50
10598;BMP180;5346;48.766;8.674;2024-03-08T15:03:01;93052.00;;;11.00
10598;BMP180;5346;48.766;8.674;2024-03-08T15:05:29;93066.00;;;10.80
10598;BMP180;5346;48.766;8.674;2024-03-08T15:08:07;93057.00;;;10.80
10598;BMP180;5346;48.766;8.674;2024-03-08T15:10:39;93056.00;;;10.40
10598;BMP180;5346;48.766;8.674;2024-03-08T15:13:17;93055.00;;;9.70